sensor_id;sensor_type;location;lat;lon;timestamp;pressure;altitude;pressure_sealevel;temperature;humidity
80629;BME280;69983;42.370;-71.210;2024-01-06T00:01:17;102026.53;;;23.46;30.63
80629;BME280;69983;42.370;-71.210;2024-01-06T00:03:17;102033.08;;;23.60;30.50
80629;BME280;69983;42.370;-71.210;2024-01-06T00:05:17;102031.68;;;23.49;30.63
80629;BME280;69983;42.370;-71.210;2024-01-06T00:07:18;102035.60;;;23.66;30.45
80629;BME280;69983;42.370;-71.210;2024-01-06T00:09:18;102038.60;;;23.37;30.79
80629;BME280;69983;42.370;-71.210;2024-01-06T00:11:18;102047.06;;;21.99;32.45
80629;BME280;69983;42.370;-71.210;2024-01-06T00:13:19;102049.02;;;22.50;32.07
80629;BME280;69983;42.370;-71.210;2024-01-06T00:15:19;102051.67;;;23.39;31.07
80629;BME280;69983;42.370;-71.210;2024-01-06T00:17:19;102053.72;;;23.52;30.93
80629;BME280;69983;42.370;-71.210;2024-01-06T00:19:20;102058.05;;;23.70;31.04
80629;BME280;69983;42.370;-71.210;2024-01-06T00:21:20;102060.05;;;23.73;30.78
80629;BME280;69983;42.370;-71.210;2024-01-06T00:23:21;102058.93;;;23.67;30.86
80629;BME280;69983;42.370;-71.210;2024-01-06T00:25:22;102057.84;;;23.78;30.69
80629;BME280;69983;42.370;-71.210;2024-01-06T00:27:22;102053.00;;;23.70;30.81
80629;BME280;69983;42.370;-71.210;2024-01-06T00:29:22;102056.13;;;23.38;31.17
80629;BME280;69983;42.370;-71.210;2024-01-06T00:31:23;102054.40;;;23.72;31.11
80629;BME280;69983;42.370;-71.210;2024-01-06T00:33:23;102052.71;;;23.83;30.99
80629;BME280;69983;42.370;-71.210;2024-01-06T00:35:24;102059.03;;;23.61;30.98
80629;BME280;69983;42.370;-71.210;2024-01-06T00:37:24;102061.48;;;23.61;30.96
80629;BME280;69983;42.370;-71.210;2024-01-06T00:39:25;102064.99;;;23.60;30.92
80629;BME280;69983;42.370;-71.210;2024-01-06T00:41:25;102067.84;;;23.59;31.00
80629;BME280;69983;42.370;-71.210;2024-01-06T00:43:25;102067.19;;;23.75;30.86
80629;BME280;69983;42.370;-71.210;2024-01-06T00:45:26;102063.11;;;23.27;31.35
80629;BME280;69983;42.370;-71.210;2024-01-06T00:47:26;102063.37;;;23.51;31.12
80629;BME280;69983;42.370;-71.210;2024-01-06T00:49:26;102061.13;;;23.86;31.02
80629;BME280;69983;42.370;-71.210;2024-01-06T00:51:28;102060.85;;;23.61;31.04
80629;BME280;69983;42.370;-71.210;2024-01-06T00:53:27;102061.88;;;23.80;31.08
80629;BME280;69983;42.370;-71.210;2024-01-06T00:55:27;102067.12;;;23.86;31.06
80629;BME280;69983;42.370;-71.210;2024-01-06T00:57:28;102073.76;;;23.74;30.93
80629;BME280;69983;42.370;-71.210;2024-01-06T00:59:28;102070.38;;;23.64;31.04
80629;BME280;69983;42.370;-71.210;2024-01-06T01:01:29;102069.80;;;23.34;31.36
80629;BME280;69983;42.370;-71.210;2024-01-06T01:03:30;102073.64;;;23.58;31.16
80629;BME280;69983;42.370;-71.210;2024-01-06T01:05:30;102073.92;;;23.45;31.26
80629;BME280;69983;42.370;-71.210;2024-01-06T01:07:31;102072.29;;;22.75;32.05
80629;BME280;69983;42.370;-71.210;2024-01-06T01:09:31;102075.65;;;22.10;32.89
80629;BME280;69983;42.370;-71.210;2024-01-06T01:11:32;102070.70;;;23.33;31.55
80629;BME280;69983;42.370;-71.210;2024-01-06T01:13:32;102074.59;;;23.68;31.16
80629;BME280;69983;42.370;-71.210;2024-01-06T01:15:33;102075.66;;;23.79;31.00
80629;BME280;69983;42.370;-71.210;2024-01-06T01:17:33;102074.61;;;23.79;31.03
80629;BME280;69983;42.370;-71.210;2024-01-06T01:19:33;102070.94;;;23.99;31.03
80629;BME280;69983;42.370;-71.210;2024-01-06T01:21:33;102066.19;;;23.75;31.12
80629;BME280;69983;42.370;-71.210;2024-01-06T01:23:33;102060.49;;;23.64;31.19
80629;BME280;69983;42.370;-71.210;2024-01-06T01:25:34;102057.05;;;23.57;31.05
80629;BME280;69983;42.370;-71.210;2024-01-06T01:27:35;102054.14;;;23.66;31.20
80629;BME280;69983;42.370;-71.210;2024-01-06T01:29:36;102058.59;;;23.54;31.41
80629;BME280;69983;42.370;-71.210;2024-01-06T01:31:36;102065.27;;;23.89;31.28
80629;BME280;69983;42.370;-71.210;2024-01-06T01:33:36;102065.09;;;23.91;31.03
80629;BME280;69983;42.370;-71.210;2024-01-06T01:35:38;102059.54;;;23.96;31.18
80629;BME280;69983;42.370;-71.210;2024-01-06T01:37:38;102053.44;;;23.91;30.95
80629;BME280;69983;42.370;-71.210;2024-01-06T01:39:37;102043.66;;;23.60;31.04
80629;BME280;69983;42.370;-71.210;2024-01-06T01:41:39;102036.58;;;23.74;31.15
80629;BME280;69983;42.370;-71.210;2024-01-06T01:43:38;102030.66;;;23.73;31.19
80629;BME280;69983;42.370;-71.210;2024-01-06T01:45:45;102032.14;;;23.87;31.08
80629;BME280;69983;42.370;-71.210;2024-01-06T01:47:39;102028.38;;;22.81;31.96
80629;BME280;69983;42.370;-71.210;2024-01-06T01:49:39;102029.71;;;22.82;32.14
80629;BME280;69983;42.370;-71.210;2024-01-06T01:51:39;102033.10;;;22.83;32.43
80629;BME280;69983;42.370;-71.210;2024-01-06T01:53:40;102032.42;;;22.75;32.39
80629;BME280;69983;42.370;-71.210;2024-01-06T01:55:41;102029.86;;;22.16;32.63
80629;BME280;69983;42.370;-71.210;2024-01-06T01:57:40;102037.17;;;22.84;32.43
80629;BME280;69983;42.370;-71.210;2024-01-06T01:59:42;102045.07;;;22.46;32.60
80629;BME280;69983;42.370;-71.210;2024-01-06T02:01:41;102052.98;;;22.42;32.65
80629;BME280;69983;42.370;-71.210;2024-01-06T02:03:42;102058.27;;;22.97;32.28
80629;BME280;69983;42.370;-71.210;2024-01-06T02:05:43;102061.62;;;22.72;32.49
80629;BME280;69983;42.370;-71.210;2024-01-06T02:07:43;102054.45;;;22.74;32.21
80629;BME280;69983;42.370;-71.210;2024-01-06T02:09:43;102050.54;;;22.62;32.38
80629;BME280;69983;42.370;-71.210;2024-01-06T02:11:44;102054.45;;;22.50;32.50
80629;BME280;69983;42.370;-71.210;2024-01-06T02:13:44;102055.13;;;22.63;32.36
80629;BME280;69983;42.370;-71.210;2024-01-06T02:15:45;102047.12;;;22.51;32.33
80629;BME280;69983;42.370;-71.210;2024-01-06T02:17:45;102035.29;;;22.62;31.75
80629;BME280;69983;42.370;-71.210;2024-01-06T02:19:51;102031.35;;;22.79;31.29
80629;BME280;69983;42.370;-71.210;2024-01-06T02:21:49;102026.59;;;22.91;31.00
80629;BME280;69983;42.370;-71.210;2024-01-06T02:23:48;102022.40;;;22.52;30.89
80629;BME280;69983;42.370;-71.210;2024-01-06T02:25:47;102024.02;;;22.25;30.62
80629;BME280;69983;42.370;-71.210;2024-01-06T02:27:46;102027.13;;;22.50;30.19
80629;BME280;69983;42.370;-71.210;2024-01-06T02:29:47;102024.88;;;22.15;30.30
80629;BME280;69983;42.370;-71.210;2024-01-06T02:31:47;102024.40;;;21.85;30.20
80629;BME280;69983;42.370;-71.210;2024-01-06T02:33:53;102029.70;;;22.37;30.54
80629;BME280;69983;42.370;-71.210;2024-01-06T02:35:50;102032.83;;;22.52;30.73
80629;BME280;69983;42.370;-71.210;2024-01-06T02:37:48;102037.45;;;22.48;30.99
80629;BME280;69983;42.370;-71.210;2024-01-06T02:39:49;102039.20;;;22.37;31.32
80629;BME280;69983;42.370;-71.210;2024-01-06T02:41:50;102036.32;;;22.12;31.55
80629;BME280;69983;42.370;-71.210;2024-01-06T02:43:50;102032.73;;;22.51;31.30
80629;BME280;69983;42.370;-71.210;2024-01-06T02:45:51;102032.06;;;22.32;31.38
80629;BME280;69983;42.370;-71.210;2024-01-06T02:47:51;102023.62;;;22.47;31.53
80629;BME280;69983;42.370;-71.210;2024-01-06T02:49:51;102027.97;;;22.39;31.96
80629;BME280;69983;42.370;-71.210;2024-01-06T02:51:52;102020.41;;;22.38;31.80
80629;BME280;69983;42.370;-71.210;2024-01-06T02:53:52;102011.30;;;22.52;31.87
80629;BME280;69983;42.370;-71.210;2024-01-06T02:55:53;102006.28;;;22.83;31.64
80629;BME280;69983;42.370;-71.210;2024-01-06T02:57:54;102011.20;;;22.79;31.46
80629;BME280;69983;42.370;-71.210;2024-01-06T02:59:54;102007.32;;;23.11;31.19
80629;BME280;69983;42.370;-71.210;2024-01-06T03:01:54;102007.98;;;22.89;31.34
80629;BME280;69983;42.370;-71.210;2024-01-06T03:03:54;102000.36;;;22.61;31.42
80629;BME280;69983;42.370;-71.210;2024-01-06T03:05:55;101994.49;;;22.64;31.63
80629;BME280;69983;42.370;-71.210;2024-01-06T03:07:55;101992.83;;;22.80;31.69
80629;BME280;69983;42.370;-71.210;2024-01-06T03:09:55;101988.38;;;22.53;31.48
80629;BME280;69983;42.370;-71.210;2024-01-06T03:11:55;101988.89;;;22.73;31.71
80629;BME280;69983;42.370;-71.210;2024-01-06T03:13:56;101986.61;;;22.63;31.61
80629;BME280;69983;42.370;-71.210;2024-01-06T03:15:57;101984.80;;;22.17;32.01
80629;BME280;69983;42.370;-71.210;2024-01-06T03:17:57;101981.46;;;22.50;31.72
80629;BME280;69983;42.370;-71.210;2024-01-06T03:19:57;101971.07;;;22.39;31.57
80629;BME280;69983;42.370;-71.210;2024-01-06T03:21:58;101970.73;;;22.34;31.80
80629;BME280;69983;42.370;-71.210;2024-01-06T03:23:58;101968.76;;;22.46;31.83
80629;BME280;69983;42.370;-71.210;2024-01-06T03:26:06;101960.18;;;22.94;31.74
80629;BME280;69983;42.370;-71.210;2024-01-06T03:27:59;101959.19;;;22.87;31.39
80629;BME280;69983;42.370;-71.210;2024-01-06T03:30:00;101955.96;;;22.88;31.64
80629;BME280;69983;42.370;-71.210;2024-01-06T03:32:00;101959.10;;;22.87;31.64
80629;BME280;69983;42.370;-71.210;2024-01-06T03:34:00;101959.62;;;22.70;31.69
80629;BME280;69983;42.370;-71.210;2024-01-06T03:36:05;101959.99;;;22.44;32.05
80629;BME280;69983;42.370;-71.210;2024-01-06T03:38:01;101959.39;;;22.53;32.25
80629;BME280;69983;42.370;-71.210;2024-01-06T03:40:01;101958.35;;;22.87;32.22
80629;BME280;69983;42.370;-71.210;2024-01-06T03:42:01;101956.83;;;22.78;32.10
80629;BME280;69983;42.370;-71.210;2024-01-06T03:44:01;101955.50;;;22.84;32.25
80629;BME280;69983;42.370;-71.210;2024-01-06T03:46:02;101956.43;;;22.08;32.58
80629;BME280;69983;42.370;-71.210;2024-01-06T03:48:03;101960.51;;;22.54;32.39
80629;BME280;69983;42.370;-71.210;2024-01-06T03:50:02;101968.64;;;22.56;32.42
80629;BME280;69983;42.370;-71.210;2024-01-06T03:52:04;101973.80;;;21.90;32.37
80629;BME280;69983;42.370;-71.210;2024-01-06T03:54:04;101974.14;;;22.59;31.85
80629;BME280;69983;42.370;-71.210;2024-01-06T03:56:05;101978.01;;;22.68;32.02
80629;BME280;69983;42.370;-71.210;2024-01-06T03:58:06;101980.42;;;22.76;32.04
80629;BME280;69983;42.370;-71.210;2024-01-06T04:00:06;101986.11;;;22.35;32.14
80629;BME280;69983;42.370;-71.210;2024-01-06T04:02:06;101991.95;;;22.79;32.27
80629;BME280;69983;42.370;-71.210;2024-01-06T04:04:07;101994.97;;;22.60;32.47
80629;BME280;69983;42.370;-71.210;2024-01-06T04:06:09;101989.71;;;22.49;32.57
80629;BME280;69983;42.370;-71.210;2024-01-06T04:08:08;101996.80;;;22.40;32.40
80629;BME280;69983;42.370;-71.210;2024-01-06T04:10:09;102002.15;;;22.42;32.59
80629;BME280;69983;42.370;-71.210;2024-01-06T04:12:09;102002.76;;;22.10;32.72
80629;BME280;69983;42.370;-71.210;2024-01-06T04:14:09;102002.50;;;22.31;32.53
80629;BME280;69983;42.370;-71.210;2024-01-06T04:16:10;101998.44;;;22.94;32.12
80629;BME280;69983;42.370;-71.210;2024-01-06T04:18:10;101996.19;;;22.91;31.84
80629;BME280;69983;42.370;-71.210;2024-01-06T04:20:13;101991.71;;;22.73;32.05
80629;BME280;69983;42.370;-71.210;2024-01-06T04:22:11;101990.63;;;22.74;32.06
80629;BME280;69983;42.370;-71.210;2024-01-06T04:24:12;101992.88;;;22.59;32.14
80629;BME280;69983;42.370;-71.210;2024-01-06T04:26:13;102000.05;;;22.59;32.16
80629;BME280;69983;42.370;-71.210;2024-01-06T04:28:13;102012.73;;;22.45;32.30
80629;BME280;69983;42.370;-71.210;2024-01-06T04:30:19;102015.20;;;22.46;31.95
80629;BME280;69983;42.370;-71.210;2024-01-06T04:32:14;102020.87;;;22.33;32.02
80629;BME280;69983;42.370;-71.210;2024-01-06T04:34:15;102023.84;;;21.85;31.77
80629;BME280;69983;42.370;-71.210;2024-01-06T04:36:14;102028.41;;;21.75;30.80
80629;BME280;69983;42.370;-71.210;2024-01-06T04:38:15;102037.92;;;22.40;30.11
80629;BME280;69983;42.370;-71.210;2024-01-06T04:40:16;102040.11;;;22.58;29.55
80629;BME280;69983;42.370;-71.210;2024-01-06T04:42:16;102045.25;;;22.51;29.31
80629;BME280;69983;42.370;-71.210;2024-01-06T04:44:20;102047.32;;;23.46;29.16
80629;BME280;69983;42.370;-71.210;2024-01-06T04:46:17;102045.72;;;23.49;30.15
80629;BME280;69983;42.370;-71.210;2024-01-06T04:48:18;102037.55;;;23.63;30.56
80629;BME280;69983;42.370;-71.210;2024-01-06T04:50:22;102040.27;;;23.08;31.16
80629;BME280;69983;42.370;-71.210;2024-01-06T04:52:18;102041.51;;;22.85;31.23
80629;BME280;69983;42.370;-71.210;2024-01-06T04:54:18;102039.78;;;22.87;31.27
80629;BME280;69983;42.370;-71.210;2024-01-06T04:56:20;102044.22;;;23.17;31.04
80629;BME280;69983;42.370;-71.210;2024-01-06T04:58:19;102035.88;;;21.87;32.42
80629;BME280;69983;42.370;-71.210;2024-01-06T05:00:20;102038.31;;;22.01;32.61
80629;BME280;69983;42.370;-71.210;2024-01-06T05:02:20;102037.16;;;21.79;32.90
80629;BME280;69983;42.370;-71.210;2024-01-06T05:04:20;102032.18;;;21.46;33.01
80629;BME280;69983;42.370;-71.210;2024-01-06T05:06:21;102033.49;;;21.35;33.41
80629;BME280;69983;42.370;-71.210;2024-01-06T05:08:21;102037.60;;;21.87;33.45
80629;BME280;69983;42.370;-71.210;2024-01-06T05:10:22;102036.62;;;21.23;33.64
80629;BME280;69983;42.370;-71.210;2024-01-06T05:12:27;102029.81;;;21.59;33.54
80629;BME280;69983;42.370;-71.210;2024-01-06T05:14:22;102031.81;;;21.31;33.56
80629;BME280;69983;42.370;-71.210;2024-01-06T05:16:23;102026.54;;;21.61;33.47
80629;BME280;69983;42.370;-71.210;2024-01-06T05:18:24;102018.50;;;21.45;33.62
80629;BME280;69983;42.370;-71.210;2024-01-06T05:20:24;102022.09;;;21.59;33.69
80629;BME280;69983;42.370;-71.210;2024-01-06T05:22:25;102017.58;;;21.45;33.79
80629;BME280;69983;42.370;-71.210;2024-01-06T05:24:25;102025.23;;;21.59;33.62
80629;BME280;69983;42.370;-71.210;2024-01-06T05:26:26;102029.42;;;21.34;33.56
80629;BME280;69983;42.370;-71.210;2024-01-06T05:28:26;102036.56;;;21.32;33.54
80629;BME280;69983;42.370;-71.210;2024-01-06T05:30:27;102035.23;;;21.32;33.54
80629;BME280;69983;42.370;-71.210;2024-01-06T05:32:27;102023.54;;;21.00;33.89
80629;BME280;69983;42.370;-71.210;2024-01-06T05:34:27;102023.33;;;21.43;33.40
80629;BME280;69983;42.370;-71.210;2024-01-06T05:36:28;102025.57;;;21.19;33.67
80629;BME280;69983;42.370;-71.210;2024-01-06T05:38:29;102024.52;;;21.13;33.75
80629;BME280;69983;42.370;-71.210;2024-01-06T05:40:28;102018.15;;;21.13;33.72
80629;BME280;69983;42.370;-71.210;2024-01-06T05:42:28;102014.98;;;21.53;33.58
80629;BME280;69983;42.370;-71.210;2024-01-06T05:44:29;102005.27;;;21.59;33.25
80629;BME280;69983;42.370;-71.210;2024-01-06T05:46:29;102003.64;;;21.86;32.96
80629;BME280;69983;42.370;-71.210;2024-01-06T05:48:30;101996.65;;;21.94;32.75
80629;BME280;69983;42.370;-71.210;2024-01-06T05:50:31;101992.99;;;21.89;32.78
80629;BME280;69983;42.370;-71.210;2024-01-06T05:52:32;101986.28;;;22.01;32.97
80629;BME280;69983;42.370;-71.210;2024-01-06T05:54:31;101987.82;;;21.52;33.24
80629;BME280;69983;42.370;-71.210;2024-01-06T05:56:33;101989.26;;;21.40;33.08
80629;BME280;69983;42.370;-71.210;2024-01-06T05:58:31;101993.55;;;21.61;33.11
80629;BME280;69983;42.370;-71.210;2024-01-06T06:00:32;101994.74;;;21.92;33.04
80629;BME280;69983;42.370;-71.210;2024-01-06T06:02:32;101991.18;;;21.84;32.82
80629;BME280;69983;42.370;-71.210;2024-01-06T06:04:32;101982.89;;;21.71;33.00
80629;BME280;69983;42.370;-71.210;2024-01-06T06:06:39;101978.75;;;21.32;33.25
80629;BME280;69983;42.370;-71.210;2024-01-06T06:08:32;101979.47;;;21.59;33.25
80629;BME280;69983;42.370;-71.210;2024-01-06T06:10:35;101967.69;;;21.29;33.63
80629;BME280;69983;42.370;-71.210;2024-01-06T06:12:33;101961.74;;;21.42;33.55
80629;BME280;69983;42.370;-71.210;2024-01-06T06:14:34;101969.97;;;21.43;33.83
80629;BME280;69983;42.370;-71.210;2024-01-06T06:16:34;101978.35;;;21.49;33.58
80629;BME280;69983;42.370;-71.210;2024-01-06T06:18:34;101989.56;;;21.43;33.89
80629;BME280;69983;42.370;-71.210;2024-01-06T06:20:35;101991.82;;;21.61;33.64
80629;BME280;69983;42.370;-71.210;2024-01-06T06:22:35;101989.45;;;21.14;33.85
80629;BME280;69983;42.370;-71.210;2024-01-06T06:24:41;101978.17;;;21.49;33.80
80629;BME280;69983;42.370;-71.210;2024-01-06T06:26:37;101970.09;;;21.40;33.92
80629;BME280;69983;42.370;-71.210;2024-01-06T06:28:37;101970.98;;;21.26;33.79
80629;BME280;69983;42.370;-71.210;2024-01-06T06:30:38;101971.49;;;21.58;33.63
80629;BME280;69983;42.370;-71.210;2024-01-06T06:32:38;101975.82;;;21.41;33.80
80629;BME280;69983;42.370;-71.210;2024-01-06T06:34:38;101982.34;;;21.59;33.64
80629;BME280;69983;42.370;-71.210;2024-01-06T06:36:41;101985.76;;;21.92;33.27
80629;BME280;69983;42.370;-71.210;2024-01-06T06:38:39;101979.96;;;21.66;33.15
80629;BME280;69983;42.370;-71.210;2024-01-06T06:40:39;101978.21;;;21.79;33.22
80629;BME280;69983;42.370;-71.210;2024-01-06T06:42:39;101987.17;;;21.21;33.40
80629;BME280;69983;42.370;-71.210;2024-01-06T06:44:46;101992.46;;;21.64;33.19
80629;BME280;69983;42.370;-71.210;2024-01-06T06:46:40;101999.07;;;21.69;33.34
80629;BME280;69983;42.370;-71.210;2024-01-06T06:48:41;102003.55;;;21.37;33.39
80629;BME280;69983;42.370;-71.210;2024-01-06T06:50:41;102003.79;;;21.49;33.22
80629;BME280;69983;42.370;-71.210;2024-01-06T06:52:43;102003.82;;;21.34;33.09
80629;BME280;69983;42.370;-71.210;2024-01-06T06:54:47;102010.73;;;21.49;33.42
80629;BME280;69983;42.370;-71.210;2024-01-06T06:56:44;102015.39;;;21.57;33.34
80629;BME280;69983;42.370;-71.210;2024-01-06T06:58:43;102012.36;;;21.52;33.30
80629;BME280;69983;42.370;-71.210;2024-01-06T07:00:43;102009.70;;;21.50;33.30
80629;BME280;69983;42.370;-71.210;2024-01-06T07:02:44;102007.41;;;21.61;33.18
80629;BME280;69983;42.370;-71.210;2024-01-06T07:04:44;102010.60;;;21.13;33.42
80629;BME280;69983;42.370;-71.210;2024-01-06T07:06:45;102012.00;;;21.49;33.45
80629;BME280;69983;42.370;-71.210;2024-01-06T07:08:44;102021.01;;;21.76;33.12
80629;BME280;69983;42.370;-71.210;2024-01-06T07:10:46;102027.68;;;21.73;33.06
80629;BME280;69983;42.370;-71.210;2024-01-06T07:12:45;102028.47;;;21.65;32.94
80629;BME280;69983;42.370;-71.210;2024-01-06T07:14:45;102028.52;;;21.84;32.74
80629;BME280;69983;42.370;-71.210;2024-01-06T07:16:46;102025.08;;;21.61;32.95
80629;BME280;69983;42.370;-71.210;2024-01-06T07:18:46;102019.16;;;21.69;33.12
80629;BME280;69983;42.370;-71.210;2024-01-06T07:20:47;102012.25;;;21.34;33.27
80629;BME280;69983;42.370;-71.210;2024-01-06T07:22:47;102017.80;;;21.49;33.42
80629;BME280;69983;42.370;-71.210;2024-01-06T07:24:48;102022.86;;;21.58;33.37
80629;BME280;69983;42.370;-71.210;2024-01-06T07:26:48;102028.30;;;21.27;33.42
80629;BME280;69983;42.370;-71.210;2024-01-06T07:28:49;102029.60;;;21.28;33.37
80629;BME280;69983;42.370;-71.210;2024-01-06T07:30:49;102028.42;;;21.28;33.31
80629;BME280;69983;42.370;-71.210;2024-01-06T07:32:49;102038.34;;;21.12;33.52
80629;BME280;69983;42.370;-71.210;2024-01-06T07:34:49;102047.40;;;21.23;33.67
80629;BME280;69983;42.370;-71.210;2024-01-06T07:36:49;102052.87;;;21.10;33.71
80629;BME280;69983;42.370;-71.210;2024-01-06T07:38:50;102055.27;;;21.79;33.30
80629;BME280;69983;42.370;-71.210;2024-01-06T07:40:51;102051.00;;;22.04;32.94
80629;BME280;69983;42.370;-71.210;2024-01-06T07:42:52;102043.87;;;21.35;33.36
80629;BME280;69983;42.370;-71.210;2024-01-06T07:44:51;102043.45;;;21.23;33.17
80629;BME280;69983;42.370;-71.210;2024-01-06T07:46:52;102039.02;;;21.64;33.25
80629;BME280;69983;42.370;-71.210;2024-01-06T07:48:55;102035.00;;;21.39;33.27
80629;BME280;69983;42.370;-71.210;2024-01-06T07:50:52;102032.68;;;21.51;33.16
80629;BME280;69983;42.370;-71.210;2024-01-06T07:52:53;102040.25;;;21.29;33.39
80629;BME280;69983;42.370;-71.210;2024-01-06T07:54:53;102042.13;;;21.34;33.33
80629;BME280;69983;42.370;-71.210;2024-01-06T07:56:54;102041.38;;;21.51;33.42
80629;BME280;69983;42.370;-71.210;2024-01-06T07:58:54;102048.33;;;21.44;33.48
80629;BME280;69983;42.370;-71.210;2024-01-06T08:00:55;102047.97;;;21.52;33.41
80629;BME280;69983;42.370;-71.210;2024-01-06T08:02:55;102048.61;;;21.27;33.46
80629;BME280;69983;42.370;-71.210;2024-01-06T08:04:56;102048.92;;;21.24;33.54
80629;BME280;69983;42.370;-71.210;2024-01-06T08:06:57;102055.74;;;21.58;33.42
80629;BME280;69983;42.370;-71.210;2024-01-06T08:08:58;102057.14;;;21.67;33.36
80629;BME280;69983;42.370;-71.210;2024-01-06T08:10:57;102062.24;;;21.23;33.60
80629;BME280;69983;42.370;-71.210;2024-01-06T08:12:58;102066.97;;;21.46;33.59
80629;BME280;69983;42.370;-71.210;2024-01-06T08:14:58;102071.61;;;21.59;33.42
80629;BME280;69983;42.370;-71.210;2024-01-06T08:16:59;102071.30;;;21.35;33.64
80629;BME280;69983;42.370;-71.210;2024-01-06T08:18:58;102066.61;;;21.36;33.30
80629;BME280;69983;42.370;-71.210;2024-01-06T08:20:59;102064.24;;;21.25;33.39
80629;BME280;69983;42.370;-71.210;2024-01-06T08:22:59;102068.81;;;21.37;33.55
80629;BME280;69983;42.370;-71.210;2024-01-06T08:25:00;102076.66;;;21.10;33.56
80629;BME280;69983;42.370;-71.210;2024-01-06T08:27:01;102073.64;;;21.44;33.45
80629;BME280;69983;42.370;-71.210;2024-01-06T08:29:00;102073.39;;;21.49;33.44
80629;BME280;69983;42.370;-71.210;2024-01-06T08:31:00;102070.76;;;21.29;33.44
80629;BME280;69983;42.370;-71.210;2024-01-06T08:33:00;102076.99;;;21.38;33.63
80629;BME280;69983;42.370;-71.210;2024-01-06T08:35:00;102084.54;;;21.29;33.44
80629;BME280;69983;42.370;-71.210;2024-01-06T08:37:00;102082.77;;;21.39;33.62
80629;BME280;69983;42.370;-71.210;2024-01-06T08:39:06;102081.72;;;21.69;33.20
80629;BME280;69983;42.370;-71.210;2024-01-06T08:41:02;102084.28;;;21.88;32.99
80629;BME280;69983;42.370;-71.210;2024-01-06T08:43:02;102083.58;;;21.50;33.08
80629;BME280;69983;42.370;-71.210;2024-01-06T08:45:02;102083.58;;;21.41;33.38
80629;BME280;69983;42.370;-71.210;2024-01-06T08:47:03;102079.22;;;21.24;33.57
80629;BME280;69983;42.370;-71.210;2024-01-06T08:49:03;102076.37;;;21.73;33.33
80629;BME280;69983;42.370;-71.210;2024-01-06T08:51:04;102074.20;;;21.88;33.22
80629;BME280;69983;42.370;-71.210;2024-01-06T08:53:04;102075.80;;;21.72;33.33
80629;BME280;69983;42.370;-71.210;2024-01-06T08:55:05;102080.47;;;21.40;33.45
80629;BME280;69983;42.370;-71.210;2024-01-06T08:57:05;102083.22;;;21.49;33.38
80629;BME280;69983;42.370;-71.210;2024-01-06T08:59:06;102087.30;;;21.61;33.51
80629;BME280;69983;42.370;-71.210;2024-01-06T09:01:06;102088.50;;;21.61;33.55
80629;BME280;69983;42.370;-71.210;2024-01-06T09:03:07;102086.57;;;21.36;33.57
80629;BME280;69983;42.370;-71.210;2024-01-06T09:05:07;102087.93;;;21.44;33.39
80629;BME280;69983;42.370;-71.210;2024-01-06T09:07:07;102081.47;;;21.44;33.61
80629;BME280;69983;42.370;-71.210;2024-01-06T09:09:07;102072.69;;;21.24;33.83
80629;BME280;69983;42.370;-71.210;2024-01-06T09:11:07;102072.44;;;21.48;33.33
80629;BME280;69983;42.370;-71.210;2024-01-06T09:13:07;102076.98;;;21.75;33.01
80629;BME280;69983;42.370;-71.210;2024-01-06T09:15:08;102079.17;;;21.61;33.15
80629;BME280;69983;42.370;-71.210;2024-01-06T09:17:08;102088.31;;;21.26;33.24
80629;BME280;69983;42.370;-71.210;2024-01-06T09:19:07;102095.88;;;21.78;33.16
80629;BME280;69983;42.370;-71.210;2024-01-06T09:21:07;102096.57;;;21.36;33.35
80629;BME280;69983;42.370;-71.210;2024-01-06T09:23:08;102096.79;;;21.51;33.44
80629;BME280;69983;42.370;-71.210;2024-01-06T09:25:08;102094.15;;;21.61;33.28
80629;BME280;69983;42.370;-71.210;2024-01-06T09:27:09;102094.61;;;21.28;33.34
80629;BME280;69983;42.370;-71.210;2024-01-06T09:29:08;102094.14;;;21.57;33.07
80629;BME280;69983;42.370;-71.210;2024-01-06T09:31:08;102093.63;;;21.44;33.56
80629;BME280;69983;42.370;-71.210;2024-01-06T09:33:10;102096.36;;;22.05;33.00
80629;BME280;69983;42.370;-71.210;2024-01-06T09:35:08;102103.44;;;21.56;33.21
80629;BME280;69983;42.370;-71.210;2024-01-06T09:37:08;102103.36;;;21.54;33.26
80629;BME280;69983;42.370;-71.210;2024-01-06T09:39:08;102104.36;;;21.60;33.19
80629;BME280;69983;42.370;-71.210;2024-01-06T09:41:08;102105.47;;;21.63;33.42
80629;BME280;69983;42.370;-71.210;2024-01-06T09:43:08;102111.09;;;21.54;33.53
80629;BME280;69983;42.370;-71.210;2024-01-06T09:45:09;102119.14;;;21.43;33.70
80629;BME280;69983;42.370;-71.210;2024-01-06T09:47:12;102124.66;;;21.46;33.72
80629;BME280;69983;42.370;-71.210;2024-01-06T09:49:09;102123.65;;;21.41;33.75
80629;BME280;69983;42.370;-71.210;2024-01-06T09:51:11;102123.84;;;21.29;33.92
80629;BME280;69983;42.370;-71.210;2024-01-06T09:53:11;102122.40;;;21.69;33.48
80629;BME280;69983;42.370;-71.210;2024-01-06T09:55:11;102119.65;;;21.55;33.66
80629;BME280;69983;42.370;-71.210;2024-01-06T09:57:09;102121.50;;;21.73;33.30
80629;BME280;69983;42.370;-71.210;2024-01-06T09:59:09;102123.20;;;21.89;33.37
80629;BME280;69983;42.370;-71.210;2024-01-06T10:01:15;102124.95;;;21.72;33.33
80629;BME280;69983;42.370;-71.210;2024-01-06T10:03:09;102123.63;;;21.63;33.46
80629;BME280;69983;42.370;-71.210;2024-01-06T10:05:10;102122.36;;;21.48;33.65
80629;BME280;69983;42.370;-71.210;2024-01-06T10:07:10;102131.90;;;21.57;33.58
80629;BME280;69983;42.370;-71.210;2024-01-06T10:09:10;102135.65;;;21.25;33.64
80629;BME280;69983;42.370;-71.210;2024-01-06T10:11:14;102136.62;;;21.52;33.59
80629;BME280;69983;42.370;-71.210;2024-01-06T10:13:09;102134.17;;;21.73;33.61